Time;durP1;ratioP1;P1;durP2;ratioP2;P2;SDS_P1;SDS_P2;PMS_P1;PMS_P2;Temp;Humidity;BMP_temperature;BMP_pressure;BME280_temperature;BME280_humidity;BME280_pressure;Samples;Min_cycle;Max_cycle;Signal;HPM_P1;HPM_P2
2022/10/30 00:00:22;;;;;;;16.77;7.72;;;;;;;11.91;97.06;101457.63;10161908;29;20571;-86
2022/10/30 00:05:23;;;;;;;15.55;7.32;;;;;;;11.96;97.04;101461.28;10164470;29;20455;-86
2022/10/30 00:10:25;;;;;;;16.65;8.13;;;;;;;11.89;97.21;101464.56;10162591;29;20406;-87
2022/10/30 00:15:26;;;;;;;15.40;7.00;;;;;;;11.83;97.09;101458.34;10178108;29;20074;-87
2022/10/30 00:20:28;;;;;;;15.00;6.95;;;;;;;11.83;97.09;101458.34;10175389;29;20040;-87
2022/10/30 00:25:30;;;;;;;17.02;6.85;;;;;;;11.63;97.05;101464.84;10163227;29;20557;-87
2022/10/30 00:30:33;;;;;;;20.48;8.30;;;;;;;11.54;96.96;101459.41;10177990;29;20044;-86
2022/10/30 00:35:34;;;;;;;20.10;7.28;;;;;;;11.44;97.11;101459.19;10176621;29;20082;-87
2022/10/30 00:40:36;;;;;;;16.45;7.32;;;;;;;11.34;97.25;101451.94;10162196;29;20040;-86
2022/10/30 00:45:37;;;;;;;17.02;6.35;;;;;;;11.31;97.35;101447.50;10160318;29;20044;-86
2022/10/30 00:50:39;;;;;;;15.48;6.43;;;;;;;11.22;97.20;101452.53;10154107;29;20044;-87
2022/10/30 00:55:46;;;;;;;16.77;6.18;;;;;;;11.18;97.22;101450.66;10169066;29;20772;-86
2022/10/30 01:00:52;;;;;;;10.70;5.72;;;;;;;11.16;97.28;101446.25;10170498;29;20462;-88
2022/10/30 01:05:59;;;;;;;16.88;6.95;;;;;;;11.19;97.29;101441.09;10162672;29;20072;-87
2022/10/30 01:11:02;;;;;;;12.40;5.97;;;;;;;11.26;97.18;101453.47;10170471;29;20040;-86
2022/10/30 01:16:52;;;;;;;14.27;5.90;;;;;;;11.27;97.45;101450.00;10167105;29;20148;-86
2022/10/30 01:22:29;;;;;;;11.63;5.75;;;;;;;11.28;97.43;101451.78;10158550;29;20055;-86
2022/10/30 01:27:58;;;;;;;9.90;4.97;;;;;;;11.29;97.35;101459.69;10184804;29;20041;-86
2022/10/30 01:33:05;;;;;;;10.32;4.38;;;;;;;11.33;97.49;101460.66;10169527;29;20541;-86
2022/10/30 01:38:30;;;;;;;12.57;4.05;;;;;;;11.44;97.58;101461.81;10176799;29;20055;-86
2022/10/30 01:43:33;;;;;;;11.48;4.38;;;;;;;11.74;97.61;101463.38;10167913;29;20044;-86
2022/10/30 01:48:41;;;;;;;7.43;3.20;;;;;;;11.99;97.78;101454.38;10176788;29;20036;-87
2022/10/30 01:54:37;;;;;;;9.68;3.20;;;;;;;12.30;97.90;101456.75;10176367;29;20475;-86
2022/10/30 01:59:42;;;;;;;5.30;2.28;;;;;;;12.53;97.90;101452.81;10126764;29;20068;-87
2022/10/30 02:04:44;;;;;;;8.77;3.38;;;;;;;12.71;97.69;101452.28;10175411;29;20052;-87
2022/10/30 02:09:46;;;;;;;8.93;3.08;;;;;;;12.86;97.39;101445.56;10167804;29;20044;-88
2022/10/30 02:14:57;;;;;;;12.38;3.38;;;;;;;12.92;97.07;101445.69;10167801;29;20048;-86
2022/10/30 02:19:59;;;;;;;6.40;2.78;;;;;;;12.96;96.62;101457.16;10169627;29;20593;-87
2022/10/30 02:25:00;;;;;;;10.60;3.03;;;;;;;12.98;96.33;101444.91;10169719;29;20043;-87
2022/10/30 02:30:02;;;;;;;8.07;2.90;;;;;;;13.02;95.83;101452.00;10168010;29;20491;-86
2022/10/30 02:35:05;;;;;;;7.45;3.03;;;;;;;13.01;95.49;101461.59;10165843;29;20095;-86
2022/10/30 02:40:07;;;;;;;6.07;2.63;;;;;;;13.03;95.09;101459.91;10168970;29;20052;-86
2022/10/30 02:45:10;;;;;;;6.65;3.08;;;;;;;13.01;94.68;101466.00;10184290;29;20052;-87
2022/10/30 02:50:12;;;;;;;14.75;2.72;;;;;;;12.99;94.45;101468.59;10169396;29;20067;-87
2022/10/30 02:55:13;;;;;;;7.13;2.80;;;;;;;12.95;94.24;101473.75;10185039;29;20425;-87
2022/10/30 03:00:15;;;;;;;14.60;2.78;;;;;;;12.94;94.05;101464.09;10177123;29;20044;-86
2022/10/30 03:05:17;;;;;;;8.70;2.88;;;;;;;12.94;93.85;101474.63;10173275;29;20044;-87
2022/10/30 03:10:18;;;;;;;5.07;2.17;;;;;;;12.93;93.51;101462.34;10171564;29;20056;-87
2022/10/30 03:15:20;;;;;;;6.60;2.55;;;;;;;12.93;93.62;101475.50;10168288;29;20506;-86
2022/10/30 03:20:22;;;;;;;7.25;2.90;;;;;;;12.93;93.36;101468.47;10183081;29;20071;-86
2022/10/30 03:25:23;;;;;;;9.38;3.25;;;;;;;12.89;93.07;101478.03;10167473;29;20078;-86
2022/10/30 03:30:28;;;;;;;5.40;2.30;;;;;;;12.94;93.07;101475.53;10166770;29;20596;-87
2022/10/30 03:35:35;;;;;;;7.07;2.70;;;;;;;12.97;92.79;101483.47;10166619;29;20103;-87
2022/10/30 03:40:36;;;;;;;5.25;2.40;;;;;;;12.98;92.70;101472.06;10168911;29;20048;-87
2022/10/30 03:45:38;;;;;;;6.72;2.80;;;;;;;12.95;92.55;101472.00;10165559;29;20048;-86
2022/10/30 03:50:39;;;;;;;7.72;2.78;;;;;;;12.93;92.40;101472.88;10183890;29;20067;-85
2022/10/30 03:55:41;;;;;;;5.72;2.35;;;;;;;12.89;92.26;101467.53;10168473;29;20048;-86
2022/10/30 04:00:43;;;;;;;8.20;2.85;;;;;;;12.85;92.34;101475.31;10166033;29;20131;-88
2022/10/30 04:05:49;;;;;;;7.25;2.65;;;;;;;12.68;92.21;101468.00;10162204;29;20123;-86
2022/10/30 04:10:52;;;;;;;7.72;2.80;;;;;;;12.58;92.04;101465.19;10171767;28;20048;-86
2022/10/30 04:15:54;;;;;;;5.18;2.10;;;;;;;12.42;92.01;101457.00;10155888;29;20047;-86
2022/10/30 04:20:59;;;;;;;6.93;2.13;;;;;;;12.31;92.25;101469.00;10163883;29;20048;-86
2022/10/30 04:26:01;;;;;;;9.55;2.78;;;;;;;12.15;92.33;101473.94;10161981;29;20128;-87
2022/10/30 04:31:02;;;;;;;5.88;2.78;;;;;;;12.16;92.70;101462.59;10162898;29;20045;-86
2022/10/30 04:36:05;;;;;;;12.05;2.95;;;;;;;12.13;92.96;101462.53;10162851;29;20040;-86
2022/10/30 04:41:07;;;;;;;7.20;2.53;;;;;;;12.08;92.73;101463.28;10162206;29;20581;-86
2022/10/30 04:46:22;;;;;;;7.82;1.85;;;;;;;11.99;93.08;101469.22;10178034;29;20040;-86
2022/10/30 04:51:27;;;;;;;6.80;3.00;;;;;;;11.84;93.19;101461.84;10178695;29;20062;-86
2022/10/30 04:56:29;;;;;;;6.28;2.33;;;;;;;11.73;93.21;101472.09;10162344;29;20050;-86
2022/10/30 05:01:31;;;;;;;6.22;2.42;;;;;;;11.79;93.44;101467.00;10162417;29;20129;-86
2022/10/30 05:06:35;;;;;;;8.50;2.88;;;;;;;11.83;93.99;101476.72;10162860;29;20047;-87
2022/10/30 05:11:36;;;;;;;9.00;2.65;;;;;;;11.81;93.90;101470.56;10162153;29;20064;-87
2022/10/30 05:16:38;;;;;;;7.10;3.08;;;;;;;11.88;94.01;101481.19;10171106;29;20092;-87
2022/10/30 05:21:40;;;;;;;6.13;2.20;;;;;;;11.91;94.06;101478.63;10162186;29;20454;-86
2022/10/30 05:26:42;;;;;;;11.63;2.83;;;;;;;11.89;93.98;101485.56;10158908;29;20126;-86
2022/10/30 05:31:45;;;;;;;3.85;2.08;;;;;;;11.90;94.04;101468.97;10174974;29;20064;-87
2022/10/30 05:36:49;;;;;;;5.95;2.47;;;;;;;11.79;94.10;101477.50;10171420;29;20070;-86
2022/10/30 05:41:53;;;;;;;5.68;2.63;;;;;;;11.76;93.97;101492.28;10162193;29;20044;-86
2022/10/30 05:46:57;;;;;;;4.53;2.17;;;;;;;11.68;94.04;101482.50;10169880;29;20485;-84
2022/10/30 05:52:02;;;;;;;6.20;1.98;;;;;;;11.52;94.11;101476.84;10168323;29;20148;-87
2022/10/30 05:57:04;;;;;;;6.05;2.38;;;;;;;11.36;93.99;101486.06;10176715;29;20171;-87
2022/10/30 06:02:09;;;;;;;7.13;2.45;;;;;;;11.25;94.27;101473.56;10185334;29;20044;-86
2022/10/30 06:07:11;;;;;;;4.80;2.22;;;;;;;11.14;94.27;101483.78;10186198;29;20056;-86
2022/10/30 06:12:13;;;;;;;5.97;2.65;;;;;;;11.00;94.16;101498.25;10169507;29;20132;-85
2022/10/30 06:17:30;;;;;;;8.13;2.50;;;;;;;10.89;94.53;101499.72;10175999;29;20047;-87
2022/10/30 06:23:09;;;;;;;6.65;2.78;;;;;;;10.77;94.28;101495.00;10171224;29;20077;-85
2022/10/30 06:28:23;;;;;;;7.47;2.85;;;;;;;10.69;94.71;101486.94;10183671;29;20076;-86
2022/10/30 06:33:25;;;;;;;6.80;2.63;;;;;;;10.68;94.73;101506.13;10170259;29;20123;-86
2022/10/30 06:38:28;;;;;;;4.45;2.20;;;;;;;10.62;94.47;101511.19;10166057;29;20044;-86
2022/10/30 06:43:30;;;;;;;6.75;2.58;;;;;;;10.57;94.76;101524.16;10179816;29;20044;-85
2022/10/30 06:48:36;;;;;;;7.53;2.63;;;;;;;10.65;94.91;101527.00;10163480;29;20055;-84
2022/10/30 06:53:38;;;;;;;7.63;3.30;;;;;;;10.83;95.25;101525.75;10163219;29;20410;-86
2022/10/30 06:59:02;;;;;;;15.23;2.95;;;;;;;11.02;95.14;101528.03;10155745;29;20044;-85
2022/10/30 07:04:09;;;;;;;17.52;3.25;;;;;;;11.22;95.56;101520.69;10156466;29;20044;-86
2022/10/30 07:09:11;;;;;;;11.18;3.03;;;;;;;11.38;95.44;101521.06;10156637;29;20422;-86
2022/10/30 07:14:12;;;;;;;9.48;3.63;;;;;;;11.47;95.55;101535.31;10159199;29;20048;-87
2022/10/30 07:19:43;;;;;;;8.70;3.78;;;;;;;11.61;95.36;101540.03;10164059;29;20092;-88
2022/10/30 07:24:45;;;;;;;6.50;2.92;;;;;;;12.48;95.32;101543.81;10167663;29;20525;-89
2022/10/30 07:30:07;;;;;;;8.07;3.20;;;;;;;15.62;94.31;101554.66;10145915;29;20136;-89
2022/10/30 07:35:23;;;;;;;18.85;3.90;;;;;;;15.62;94.31;101554.66;10160867;29;20741;-88
2022/10/30 07:40:52;;;;;;;8.23;3.92;;;;;;;19.66;80.71;101568.97;10163913;29;20052;-87
2022/10/30 07:46:13;;;;;;;10.23;4.35;;;;;;;20.31;74.46;101564.84;10158167;29;20127;-89
2022/10/30 07:51:37;;;;;;;7.68;3.35;;;;;;;21.06;70.64;101567.47;10159090;29;20044;-85
2022/10/30 07:56:38;;;;;;;10.45;3.58;;;;;;;21.42;67.50;101575.81;10163500;29;20139;-86
2022/10/30 08:02:19;;;;;;;7.37;3.07;;;;;;;22.37;64.89;101578.69;10174152;29;20052;-85
2022/10/30 08:07:47;;;;;;;5.15;2.85;;;;;;;21.54;63.21;101574.78;10167642;29;20052;-85
2022/10/30 08:12:48;;;;;;;6.68;2.80;;;;;;;20.66;64.23;101574.22;10180567;29;20048;-86
2022/10/30 08:17:51;;;;;;;8.45;3.58;;;;;;;18.23;66.62;101576.75;10165023;29;20478;-86
2022/10/30 08:22:55;;;;;;;8.05;3.00;;;;;;;17.00;70.26;101572.25;10165555;29;20044;-86
2022/10/30 08:28:04;;;;;;;6.38;2.75;;;;;;;16.78;73.14;101584.47;10167453;29;20055;-86
2022/10/30 08:33:14;;;;;;;5.43;2.75;;;;;;;16.63;74.51;101582.66;10166535;29;20511;-86
2022/10/30 08:38:19;;;;;;;7.32;3.50;;;;;;;16.67;75.65;101579.16;10167800;29;20087;-86
2022/10/30 08:43:29;;;;;;;12.13;3.10;;;;;;;16.77;76.20;101578.31;10158791;29;20040;-86
2022/10/30 08:48:31;;;;;;;8.82;3.25;;;;;;;17.10;76.87;101579.34;10160481;29;20100;-89
2022/10/30 08:53:32;;;;;;;12.45;4.03;;;;;;;17.40;76.84;101572.34;10163542;29;20040;-84
2022/10/30 08:58:36;;;;;;;8.38;3.45;;;;;;;17.48;76.38;101570.56;10176392;29;20530;-85
2022/10/30 09:03:37;;;;;;;12.50;3.63;;;;;;;17.75;76.63;101574.13;10167764;29;20080;-87
2022/10/30 09:09:00;;;;;;;10.35;4.22;;;;;;;18.02;75.95;101561.78;10172863;29;20048;-86
2022/10/30 09:14:27;;;;;;;9.35;3.70;;;;;;;18.12;75.44;101574.13;10170279;29;20051;-87
2022/10/30 09:19:29;;;;;;;14.95;3.03;;;;;;;17.91;75.10;101564.44;10169353;29;20084;-86
2022/10/30 09:24:32;;;;;;;8.55;3.75;;;;;;;18.04;75.66;101575.03;10165017;29;20091;-86
2022/10/30 09:30:10;;;;;;;5.90;3.05;;;;;;;18.25;75.25;101568.81;10168320;29;20143;-87
2022/10/30 09:35:16;;;;;;;6.13;3.28;;;;;;;18.82;75.04;101574.78;10165340;29;20502;-86
2022/10/30 09:40:33;;;;;;;8.13;3.47;;;;;;;18.87;74.75;101565.06;10181967;29;20048;-89
2022/10/30 09:45:49;;;;;;;7.40;2.97;;;;;;;19.02;73.99;101563.22;10175962;29;20481;-85
2022/10/30 09:51:08;;;;;;;10.05;3.60;;;;;;;18.93;73.69;101563.25;10184804;29;20429;-85
2022/10/30 09:56:48;;;;;;;7.83;3.87;;;;;;;19.10;73.62;101576.47;10176765;29;20063;-85
2022/10/30 10:01:57;;;;;;;7.75;3.00;;;;;;;19.16;73.53;101587.91;10176973;29;20115;-85
2022/10/30 10:07:30;;;;;;;9.88;3.65;;;;;;;19.40;73.47;101586.00;10191746;29;20465;-85
2022/10/30 10:12:45;;;;;;;8.00;3.25;;;;;;;19.27;73.13;101589.63;10187368;29;20455;-86
2022/10/30 10:17:46;;;;;;;7.55;3.15;;;;;;;19.25;73.43;101581.66;10167227;29;20130;-85
2022/10/30 10:22:49;;;;;;;8.45;3.25;;;;;;;19.57;73.45;101584.09;10160710;29;20048;-85
2022/10/30 10:28:15;;;;;;;7.95;3.45;;;;;;;19.77;72.98;101580.38;10169809;29;20072;-85
2022/10/30 10:33:25;;;;;;;9.52;3.08;;;;;;;19.98;72.82;101576.69;10168547;29;20541;-84
2022/10/30 10:38:45;;;;;;;10.75;4.18;;;;;;;19.70;72.22;101576.03;10177266;29;20055;-86
2022/10/30 10:43:49;;;;;;;8.77;3.58;;;;;;;19.71;72.35;101586.66;10173830;29;20040;-85
2022/10/30 10:49:05;;;;;;;11.70;4.30;;;;;;;19.73;72.60;101579.53;10172127;29;20044;-85
2022/10/30 10:54:29;;;;;;;7.50;3.42;;;;;;;19.86;72.42;101580.38;10168531;29;20076;-85
2022/10/30 10:59:45;;;;;;;7.28;3.22;;;;;;;20.11;72.29;101580.13;10168978;29;20104;-85
2022/10/30 11:04:52;;;;;;;9.73;3.35;;;;;;;19.98;72.14;101565.19;10163354;29;20092;-85
2022/10/30 11:09:56;;;;;;;9.95;3.40;;;;;;;20.38;72.07;101556.78;10163484;29;20096;-85
2022/10/30 11:15:08;;;;;;;8.82;3.45;;;;;;;20.19;71.82;101556.09;10160422;29;20056;-87
2022/10/30 11:20:19;;;;;;;8.57;2.63;;;;;;;20.22;71.65;101545.44;10167490;29;20131;-88
2022/10/30 11:25:24;;;;;;;6.80;2.70;;;;;;;20.28;71.47;101551.59;10159675;29;20048;-86
2022/10/30 11:30:31;;;;;;;10.27;2.92;;;;;;;20.59;71.42;101545.88;10172461;29;20044;-85
2022/10/30 11:35:41;;;;;;;6.10;2.50;;;;;;;20.71;71.00;101550.22;10173736;29;20074;-85
2022/10/30 11:40:50;;;;;;;7.68;2.67;;;;;;;20.61;70.68;101560.06;10173217;29;20099;-86
2022/10/30 11:45:52;;;;;;;8.00;2.45;;;;;;;20.78;70.46;101572.31;10171026;29;20044;-85
2022/10/30 11:50:58;;;;;;;8.25;2.53;;;;;;;20.87;70.83;101571.28;10173122;29;20178;-85
2022/10/30 11:56:02;;;;;;;7.50;2.22;;;;;;;21.16;70.12;101571.75;10168563;29;20455;-86
2022/10/30 12:01:24;;;;;;;6.32;2.67;;;;;;;20.93;69.54;101564.13;10167899;29;20072;-84
2022/10/30 12:06:29;;;;;;;8.95;2.33;;;;;;;21.14;69.61;101564.72;10169067;29;20044;-84
2022/10/30 12:11:33;;;;;;;14.57;2.95;;;;;;;21.14;69.01;101559.41;10170774;29;20087;-85
2022/10/30 12:16:35;;;;;;;9.32;2.97;;;;;;;20.98;69.29;101562.25;10173298;29;20052;-86
2022/10/30 12:21:39;;;;;;;8.98;2.50;;;;;;;21.05;69.32;101551.53;10170674;29;20092;-85
2022/10/30 12:26:46;;;;;;;6.22;2.55;;;;;;;20.77;69.29;101539.47;10186480;29;20052;-86
2022/10/30 12:31:52;;;;;;;9.07;3.08;;;;;;;20.79;69.62;101536.78;10167930;29;20052;-85
2022/10/30 12:37:24;;;;;;;7.90;2.80;;;;;;;20.89;69.78;101526.91;10170868;29;20052;-85
2022/10/30 12:42:27;;;;;;;6.80;2.33;;;;;;;20.95;70.05;101533.03;10181842;29;20174;-85
2022/10/30 12:47:38;;;;;;;6.25;2.15;;;;;;;20.90;69.75;101547.31;10178792;29;20048;-87
2022/10/30 12:52:46;;;;;;;9.48;2.53;;;;;;;20.83;69.94;101541.19;10175006;29;20589;-86
2022/10/30 12:58:25;;;;;;;7.38;2.50;;;;;;;20.75;70.28;101543.09;10179389;29;20076;-85
2022/10/30 13:03:40;;;;;;;7.50;2.65;;;;;;;20.57;70.48;101541.50;10174339;29;20048;-86
2022/10/30 13:09:03;;;;;;;7.05;2.35;;;;;;;20.54;70.99;101529.13;10178055;29;20104;-85
2022/10/30 13:14:15;;;;;;;10.48;2.72;;;;;;;20.37;70.85;101529.34;10173485;29;20084;-85
2022/10/30 13:19:17;;;;;;;8.75;2.80;;;;;;;20.22;71.41;101518.84;10175902;29;20415;-86
2022/10/30 13:24:49;;;;;;;12.00;2.70;;;;;;;20.18;71.82;101523.34;10174529;29;20096;-85
2022/10/30 13:30:03;;;;;;;5.93;2.50;;;;;;;20.06;72.02;101510.19;10168065;29;20048;-85
2022/10/30 13:35:14;;;;;;;7.40;2.78;;;;;;;19.93;72.57;101506.75;10172363;29;20095;-86
2022/10/30 13:40:40;;;;;;;5.82;2.67;;;;;;;19.90;73.06;101497.03;10172126;29;20108;-87
2022/10/30 13:46:01;;;;;;;8.32;2.58;;;;;;;19.95;73.13;101489.91;10174032;29;20048;-85
2022/10/30 13:51:41;;;;;;;8.35;2.85;;;;;;;19.98;73.16;101488.09;10171110;29;20107;-84
2022/10/30 13:56:45;;;;;;;8.77;3.33;;;;;;;19.91;73.38;101488.19;10190051;29;20577;-86
2022/10/30 14:02:08;;;;;;;8.75;2.83;;;;;;;19.93;73.25;101494.34;10171582;29;20058;-86
2022/10/30 14:07:37;;;;;;;6.93;2.80;;;;;;;19.94;73.21;101490.78;10169946;29;20154;-86
2022/10/30 14:12:51;;;;;;;6.00;2.60;;;;;;;19.88;74.03;101497.97;10184933;29;20053;-85
2022/10/30 14:18:12;;;;;;;8.77;2.97;;;;;;;19.79;74.79;101501.59;10167060;29;20055;-86
2022/10/30 14:23:20;;;;;;;7.38;2.40;;;;;;;19.69;75.21;101494.56;10173902;29;20103;-85
2022/10/30 14:28:22;;;;;;;6.28;2.67;;;;;;;19.57;74.67;101492.91;10177366;29;20040;-85
2022/10/30 14:33:34;;;;;;;6.85;2.10;;;;;;;19.53;74.84;101497.38;10174325;29;20040;-86
2022/10/30 14:38:35;;;;;;;8.45;2.63;;;;;;;19.43;75.18;101493.03;10166944;29;20478;-86
2022/10/30 14:44:02;;;;;;;5.70;2.20;;;;;;;19.30;75.83;101491.38;10173306;29;20092;-86
2022/10/30 14:49:32;;;;;;;6.55;2.80;;;;;;;19.10;76.40;101503.03;10173807;29;20040;-85
2022/10/30 14:54:48;;;;;;;5.97;2.70;;;;;;;18.88;77.87;101499.63;10174382;29;20072;-86
2022/10/30 15:00:28;;;;;;;9.25;2.60;;;;;;;18.64;78.66;101493.50;10172902;29;20095;-85
2022/10/30 15:05:54;;;;;;;10.63;2.47;;;;;;;18.47;79.45;101490.94;10166218;29;20040;-86
2022/10/30 15:11:19;;;;;;;7.82;2.83;;;;;;;18.30;80.25;101488.38;10172170;29;20464;-86
2022/10/30 15:16:23;;;;;;;11.75;4.35;;;;;;;18.10;80.61;101490.22;10172123;29;20115;-84
2022/10/30 15:21:28;;;;;;;9.02;4.00;;;;;;;17.88;81.33;101490.25;10170675;29;20407;-86
2022/10/30 15:26:35;;;;;;;7.47;2.92;;;;;;;17.66;82.04;101499.97;10170307;29;20044;-84
2022/10/30 15:31:36;;;;;;;12.75;2.75;;;;;;;17.48;82.90;101504.38;10172332;29;20542;-86
2022/10/30 15:36:41;;;;;;;9.77;2.90;;;;;;;17.27;83.17;101496.44;10165532;28;20048;-84
2022/10/30 15:42:03;;;;;;;7.45;2.65;;;;;;;17.04;83.95;101494.66;10171369;29;20054;-85
2022/10/30 15:47:12;;;;;;;6.43;2.78;;;;;;;16.83;84.40;101497.22;10171469;29;20091;-85
2022/10/30 15:52:15;;;;;;;;;;;;;;;16.60;84.87;101491.00;10176557;29;20064;-84
2022/10/30 15:57:23;;;;;;;7.80;2.63;;;;;;;16.40;85.32;101495.31;10174692;29;19982;-85
2022/10/30 16:02:58;;;;;;;9.85;3.08;;;;;;;16.19;86.12;101490.81;10167045;29;20068;-85
2022/10/30 16:08:02;;;;;;;10.07;3.17;;;;;;;16.02;86.38;101490.72;10184415;29;20044;-85
2022/10/30 16:13:03;;;;;;;8.18;3.20;;;;;;;15.89;87.06;101484.47;10165706;29;20104;-86
2022/10/30 16:18:24;;;;;;;11.38;3.70;;;;;;;15.76;87.41;101485.25;10161801;29;20048;-86
2022/10/30 16:23:26;;;;;;;11.68;3.85;;;;;;;15.63;87.85;101482.53;10176485;29;20111;-85
2022/10/30 16:28:31;;;;;;;10.70;4.32;;;;;;;15.50;88.05;101478.00;10183638;29;20525;-85
2022/10/30 16:33:35;;;;;;;13.30;4.60;;;;;;;15.40;88.26;101492.88;10165215;29;20099;-86
2022/10/30 16:38:37;;;;;;;13.80;5.18;;;;;;;15.29;88.75;101495.44;10175980;29;20048;-85
2022/10/30 16:44:02;;;;;;;21.67;5.40;;;;;;;15.17;89.00;101503.25;10165853;29;20100;-85
2022/10/30 16:49:11;;;;;;;15.48;5.40;;;;;;;15.03;89.49;101493.44;10163644;29;20043;-86
2022/10/30 16:54:23;;;;;;;10.77;4.45;;;;;;;14.94;89.56;101498.63;10164498;29;20043;-85
2022/10/30 16:59:34;;;;;;;14.07;4.57;;;;;;;14.83;90.04;101505.50;10188595;29;20036;-85
2022/10/30 17:04:35;;;;;;;8.57;3.67;;;;;;;14.72;90.18;101509.81;10173490;29;20093;-84
2022/10/30 17:09:37;;;;;;;10.15;3.42;;;;;;;14.63;90.34;101515.84;10157456;29;20040;-86
2022/10/30 17:14:52;;;;;;;10.43;3.88;;;;;;;14.53;90.56;101521.81;10163991;29;20044;-86
2022/10/30 17:19:57;;;;;;;14.48;4.47;;;;;;;14.37;90.76;101532.19;10159869;29;20100;-86
2022/10/30 17:24:59;;;;;;;6.82;3.20;;;;;;;14.28;90.92;101527.66;10167049;29;20071;-85
2022/10/30 17:30:01;;;;;;;9.93;3.20;;;;;;;14.19;91.13;101540.72;10169966;29;20044;-86
2022/10/30 17:35:18;;;;;;;13.27;3.90;;;;;;;14.09;91.08;101544.06;10165286;29;20044;-86
2022/10/30 17:40:19;;;;;;;9.05;3.97;;;;;;;13.97;91.60;101537.75;10170889;29;20055;-85
2022/10/30 17:45:21;;;;;;;8.15;3.85;;;;;;;13.86;91.48;101555.16;10175345;29;20047;-85
2022/10/30 17:50:22;;;;;;;10.55;3.88;;;;;;;13.73;91.35;101555.81;10185850;29;20549;-85
2022/10/30 17:55:30;;;;;;;9.88;3.70;;;;;;;13.64;91.77;101558.28;10171820;29;20060;-85
2022/10/30 18:00:31;;;;;;;9.25;4.40;;;;;;;13.59;91.81;101555.59;10178567;29;20465;-86
2022/10/30 18:05:34;;;;;;;8.60;3.83;;;;;;;13.50;92.14;101565.97;10170820;29;20051;-86
2022/10/30 18:10:36;;;;;;;9.75;3.80;;;;;;;13.40;92.17;101562.25;10185855;29;20048;-86
2022/10/30 18:15:41;;;;;;;11.45;4.78;;;;;;;13.32;92.23;101572.63;10169905;29;20044;-86
2022/10/30 18:20:42;;;;;;;10.98;4.78;;;;;;;13.25;92.41;101555.81;10168915;29;20056;-88
2022/10/30 18:25:44;;;;;;;16.17;4.55;;;;;;;13.21;92.36;101558.38;10176628;29;20056;-85
2022/10/30 18:30:51;;;;;;;12.80;4.90;;;;;;;13.12;92.58;101561.75;10168531;29;20502;-85
2022/10/30 18:35:53;;;;;;;10.13;5.07;;;;;;;13.10;92.71;101566.06;10174930;29;20104;-88
2022/10/30 18:40:54;;;;;;;10.57;5.05;;;;;;;13.09;92.97;101577.47;10175906;29;20125;-86
2022/10/30 18:45:56;;;;;;;10.07;4.38;;;;;;;12.98;93.06;101589.50;10164713;29;20048;-86
2022/10/30 18:50:57;;;;;;;10.23;4.18;;;;;;;12.89;93.27;101592.81;10160956;29;20648;-86
2022/10/30 18:55:59;;;;;;;13.93;5.15;;;;;;;12.76;93.36;101596.94;10165074;29;20060;-87
2022/10/30 19:01:00;;;;;;;13.02;4.40;;;;;;;12.65;93.37;101593.19;10150702;29;20052;-86
2022/10/30 19:06:20;;;;;;;9.02;4.10;;;;;;;12.54;93.58;101601.72;10159771;29;20044;-86
2022/10/30 19:11:21;;;;;;;11.40;4.88;;;;;;;12.45;93.73;101601.53;10170484;29;20040;-86
2022/10/30 19:16:26;;;;;;;11.95;4.75;;;;;;;12.38;93.77;101600.50;10165079;29;20040;-87
2022/10/30 19:21:30;;;;;;;7.97;4.03;;;;;;;12.36;93.76;101611.81;10169916;29;20050;-87
2022/10/30 19:26:32;;;;;;;9.52;4.43;;;;;;;12.31;94.14;101608.19;10164601;29;20036;-87
2022/10/30 19:31:34;;;;;;;10.00;4.32;;;;;;;12.28;93.96;101608.13;10163522;29;20133;-87
2022/10/30 19:36:36;;;;;;;9.80;4.63;;;;;;;12.28;94.24;101610.75;10163378;29;20106;-86
2022/10/30 19:41:38;;;;;;;9.13;4.82;;;;;;;12.32;94.27;101604.72;10164075;29;20745;-85
2022/10/30 19:46:40;;;;;;;13.02;5.00;;;;;;;12.31;94.51;101613.44;10168461;29;20058;-87
2022/10/30 19:51:41;;;;;;;11.88;5.40;;;;;;;12.36;94.61;101619.72;10164360;29;20543;-86
2022/10/30 19:56:43;;;;;;;9.68;4.43;;;;;;;12.36;94.81;101606.56;10164549;29;20095;-86
2022/10/30 20:01:44;;;;;;;9.93;4.53;;;;;;;12.41;95.03;101604.91;10163018;29;20533;-86
2022/10/30 20:06:46;;;;;;;14.75;4.85;;;;;;;12.34;95.08;101610.88;10155824;29;20537;-86
2022/10/30 20:11:48;;;;;;;11.38;5.95;;;;;;;12.25;95.17;101608.97;10161019;29;20052;-86
2022/10/30 20:16:49;;;;;;;16.60;5.72;;;;;;;12.20;95.39;101615.81;10163667;29;20048;-86
2022/10/30 20:21:50;;;;;;;12.98;6.05;;;;;;;12.13;95.09;101620.06;10159529;29;20048;-86
2022/10/30 20:26:55;;;;;;;12.52;5.13;;;;;;;12.02;95.28;101597.88;10162434;29;20067;-86
2022/10/30 20:31:57;;;;;;;12.90;5.55;;;;;;;11.97;95.41;101607.41;10154524;29;20785;-87
2022/10/30 20:36:58;;;;;;;11.45;5.78;;;;;;;11.90;95.33;101610.69;10160955;29;20135;-86
2022/10/30 20:42:00;;;;;;;15.65;6.22;;;;;;;11.84;95.33;101611.41;10162059;29;20051;-86
2022/10/30 20:47:02;;;;;;;15.00;5.28;;;;;;;11.76;95.32;101619.09;10161378;29;20052;-86
2022/10/30 20:52:03;;;;;;;12.68;5.93;;;;;;;11.70;95.39;101645.19;10161497;29;20048;-86
2022/10/30 20:57:05;;;;;;;11.88;4.93;;;;;;;11.75;95.60;101653.16;10162911;29;20107;-87
2022/10/30 21:02:10;;;;;;;12.68;5.50;;;;;;;11.92;95.68;101650.97;10167679;29;20051;-87
2022/10/30 21:07:12;;;;;;;12.65;5.28;;;;;;;11.99;95.91;101676.56;10163567;29;20513;-87
2022/10/30 21:12:13;;;;;;;12.18;5.00;;;;;;;12.13;96.20;101676.91;10160963;29;20111;-87
2022/10/30 21:17:14;;;;;;;8.90;4.68;;;;;;;12.39;96.31;101669.69;10163454;29;20120;-86
2022/10/30 21:22:16;;;;;;;11.48;5.32;;;;;;;12.49;96.49;101662.88;10182428;29;20044;-86
2022/10/30 21:27:17;;;;;;;12.93;5.97;;;;;;;12.59;96.82;101666.63;10163024;29;20491;-86
2022/10/30 21:32:19;;;;;;;11.27;5.28;;;;;;;12.71;96.92;101664.25;10168440;29;20068;-86
2022/10/30 21:37:20;;;;;;;12.63;5.45;;;;;;;12.78;97.21;101666.19;10165039;29;20201;-86
2022/10/30 21:42:22;;;;;;;16.23;6.10;;;;;;;12.71;97.17;101674.78;10167368;29;20546;-85
2022/10/30 21:47:23;;;;;;;13.65;6.05;;;;;;;12.76;97.06;101675.78;10167079;29;20044;-87
2022/10/30 21:52:25;;;;;;;11.73;5.10;;;;;;;12.76;97.24;101691.56;10168337;29;20036;-86
2022/10/30 21:57:27;;;;;;;12.02;6.13;;;;;;;12.81;97.26;101694.28;10168422;29;20096;-86
2022/10/30 22:02:29;;;;;;;11.15;5.28;;;;;;;12.86;97.38;101700.50;10174078;29;20067;-86
2022/10/30 22:07:30;;;;;;;11.50;5.95;;;;;;;12.91;97.34;101697.16;10159319;29;20045;-86
2022/10/30 22:12:32;;;;;;;13.90;6.75;;;;;;;12.91;97.44;101706.78;10164158;29;20280;-86
2022/10/30 22:17:33;;;;;;;13.20;6.55;;;;;;;12.93;97.60;101707.69;10160436;29;20099;-86
2022/10/30 22:22:35;;;;;;;12.40;5.28;;;;;;;12.91;97.49;101702.41;10167105;29;20055;-86
2022/10/30 22:27:37;;;;;;;15.32;5.85;;;;;;;12.90;97.38;101715.50;10163688;29;20462;-87
2022/10/30 22:32:39;;;;;;;12.30;5.72;;;;;;;12.85;97.55;101718.03;10163407;29;20070;-85
2022/10/30 22:37:40;;;;;;;11.45;5.93;;;;;;;12.78;97.55;101729.25;10163752;29;20103;-86
2022/10/30 22:42:42;;;;;;;12.30;6.43;;;;;;;12.74;97.36;101740.53;10158999;29;20048;-86
2022/10/30 22:47:43;;;;;;;12.40;5.88;;;;;;;12.76;97.35;101737.94;10166492;29;20116;-86
2022/10/30 22:52:45;;;;;;;13.25;5.85;;;;;;;12.75;97.75;101742.31;10159030;29;20502;-86
2022/10/30 22:57:51;;;;;;;12.50;5.82;;;;;;;12.69;97.72;101742.19;10166826;29;20474;-86
2022/10/30 23:02:53;;;;;;;17.20;6.35;;;;;;;12.65;97.73;101748.22;10167278;29;20071;-85
2022/10/30 23:07:55;;;;;;;14.15;6.68;;;;;;;12.57;97.77;101747.16;10165571;29;20103;-86
2022/10/30 23:12:56;;;;;;;16.52;6.88;;;;;;;12.55;97.90;101742.75;10150022;29;20441;-85
2022/10/30 23:17:58;;;;;;;11.88;5.82;;;;;;;12.54;98.03;101753.22;10150674;29;20054;-86
2022/10/30 23:23:03;;;;;;;15.45;6.05;;;;;;;12.47;97.89;101752.16;10160228;29;20064;-86
2022/10/30 23:28:06;;;;;;;13.05;5.28;;;;;;;12.42;98.25;101752.91;10164231;29;20123;-86